- Ingen væradvarsler   -   

Nearby METAR Reports

 

KSJC - San Jose, California, USA
Distance from station: NØ 14km
Oppdatert: 18/06/2021 03:53
Delvis skyet
Delvis skyet
 Vind fra VNV
Vind: VNV 13 km/h
Temperatur: 30°C
Duggpunkt: 10°C
Fuktighet: 29%
Barometer: 1006.1 hPa
Clouds: Delvis skyet
Visibility: 16 km
Cloud details: Delvis skyet 2591 m
Delvis skyet 3048 m
2021/06/18 01:53 KSJC 180153Z 30007KT 10SM SCT085 SCT100 30/10 A2971 RMK AO2 SLP061 T03000100
KNUQ - Moffett Nas/Mtn, California, USA
Distance from station: N 14km
Oppdatert: 18/06/2021 04:10
Klart
Klart
 Vind fra NV
Vind: NV 11 km/h, Vindkast: 22 km/h
Temperatur: 25°C
Duggpunkt: 13°C
Fuktighet: 47%
Barometer: 1006.8 hPa
Clouds: Klart
Visibility: 16 km
2021/06/18 02:10 KNUQ 180210Z AUTO 31006G12KT 10SM CLR 25/13 A2973 RMK AO2
 
KPAO - Palo Alto, California, USA
Distance from station: NNV 23km
Oppdatert: 18/06/2021 02:47
NOT Current
Klart
Klart
 Vind fra NNV
Vind: NNV 26 km/h
Temperatur: 26°C
Duggpunkt: 16°C
Fuktighet: 54%
Barometer: 1006.4 hPa
Clouds: Klart
Visibility: 16 km
2021/06/18 00:47 KPAO 180047Z 34014KT 10SM SKC 26/16 A2972
KRHV - San Jose/Reid, California, USA
Distance from station: ØNØ 19km
Oppdatert: 18/06/2021 03:50
Delvis skyet
Delvis skyet
 Vind fra NV
Vind: NV 11 km/h
Temperatur: 36°C
Duggpunkt: 7°C
Fuktighet: 17%
Barometer: 1006.4 hPa
Clouds: Delvis skyet
Visibility: 16 km
Cloud details: Delvis skyet 2438 m
2021/06/18 01:50 KRHV 180150Z 32006KT 10SM SCT080 36/07 A2972
 
KOAK - Oakland, California, USA
Distance from station: NNV 50km
Oppdatert: 18/06/2021 03:53
Few Clouds
Few Clouds
 Vind fra VNV
Vind: VNV 20 km/h
Temperatur: 23°C
Duggpunkt: 12°C
Fuktighet: 50%
Barometer: 1006.4 hPa
Clouds: Few Clouds
Visibility: 16 km
Cloud details: Few Clouds 5486 m
Few Clouds 7620 m
2021/06/18 01:53 KOAK 180153Z 29011KT 10SM FEW180 FEW250 23/12 A2972 RMK AO2 SLP064 T02280122
KSQL - San Carlos Airpo, California, USA
Distance from station: NV 34km
Oppdatert: 18/06/2021 03:47
Klart
Klart
 Vind fra V
Vind: V 19 km/h
Temperatur: 33°C
Duggpunkt: 5°C
Fuktighet: 17%
Barometer: 1006.1 hPa
Clouds: Klart
Visibility: 16 km
2021/06/18 01:47 KSQL 180147Z 28010KT 10SM SKC 33/05 A2971
 
KSFO - San Francisco, California, USA
Distance from station: NV 49km
Oppdatert: 18/06/2021 03:56
Delvis skyet
Delvis skyet
 Vind fra NV
Vind: NV 37 km/h
Temperatur: 23°C
Duggpunkt: 10°C
Fuktighet: 44%
Barometer: 1006.1 hPa
Clouds: Delvis skyet
Visibility: 16 km
Cloud details: Delvis skyet 6096 m
2021/06/18 01:56 KSFO 180156Z 31020KT 10SM SCT200 23/10 A2971 RMK AO2 PK WND 30026/0133 SLP061 T02280100
KE16 - San Martin, California, USA
Distance from station: ØSØ 43km
Oppdatert: 18/06/2021 03:55
Klart
Klart
 Vind fra NNV
Vind: NNV 19 km/h, Vindkast: 28 km/h
Temperatur: 37°C
Duggpunkt: 2°C
Fuktighet: 11%
Barometer: 1006.4 hPa
Clouds: Klart
Visibility: 16 km
2021/06/18 01:55 KE16 180155Z AUTO 33010G15KT 10SM CLR 37/02 A2972 RMK AO2 PWINO PNO
 
KWVI - Watsonville, California, USA
Distance from station: SSØ 44km
Oppdatert: 18/06/2021 03:53
Klart
Klart
 Vind fra S
Vind: S 7 km/h
Temperatur: 18°C
Duggpunkt: 12°C
Fuktighet: 68%
Barometer: 1007.8 hPa
Clouds: Klart
Visibility: 13 km
2021/06/18 01:53 KWVI 180153Z AUTO 19004KT 8SM CLR 18/12 A2976 RMK AO2 SLP077 T01830122
KHAF - Half Moon Bay, California, USA
Distance from station: VNV 50km
Oppdatert: 18/06/2021 04:15
Haze, Klart
Haze, Klart
 Vind fra NV
Vind: NV 17 km/h
Temperatur: 15°C
Duggpunkt: 10°C
Fuktighet: 72%
Barometer: 1008.8 hPa
Oversikt: Haze
Clouds: Klart
Visibility: 6 km
2021/06/18 02:15 KHAF 180215Z AUTO 31009KT 4SM HZ CLR 15/10 A2979 RMK AO2
 
KHWD - Hayward, California, USA
Distance from station: N 44km
Oppdatert: 18/06/2021 03:54
Klart
Klart
 Vind fra VNV
Vind: VNV 15 km/h
Temperatur: 26°C
Duggpunkt: 14°C
Fuktighet: 48%
Barometer: 1006.1 hPa
Clouds: Klart
Visibility: 16 km
2021/06/18 01:54 KHWD 180154Z 29008KT 10SM CLR 26/14 A2971 RMK AO2 SLP071 T02560139
KLVK - Livermore, California, USA
Distance from station: NNØ 51km
Oppdatert: 18/06/2021 03:53
Klart
Klart
 Vind fra V
Vind: V 22 km/h
Temperatur: 37°C
Duggpunkt: 1°C
Fuktighet: 10%
Barometer: 1005.8 hPa
Clouds: Klart
Visibility: 16 km
2021/06/18 01:53 KLVK 180153Z 27012KT 10SM CLR 37/01 A2970 RMK AO2 SLP051 T03670006